Have a Safe July 4th! 

Flight Track Log - Related Links

Times and Time Zones

All times are in EDT time to prevent confusion due to time zone crossing. See the ASQ4086 flight status page for this flight to view local times or setup timezone preferences in your user account.

Time Position Orientation Groundspeed Altitude Reporting Facility
EDT Latitude Longitude Course Direction KTS MPH feet Rate Location/Type
Fri 04:54:49 PM 29.9775 -95.3319 333° Northwest 167 192 700  Level Houston Center
Fri 04:55:38 PM 30.0100 -95.3425 344° North 188 216 2,500 1,553 Climbing Houston Center
Fri 04:56:14 PM 30.0450 -95.3383 North 228 262 2,900 536 Climbing Houston Center
Fri 04:56:34 PM 30.0700 -95.3328 11° North 244 281 3,000  Climbing Houston Center
Fri 04:57:16 PM 30.1111 -95.3283 North 236 272 2,900  Descending Houston Center
Fri 04:57:41 PM 30.1467 -95.3236 North 244 281 3,000  Climbing Houston Center
Fri 04:58:00 PM 30.1911 -95.4477 333° Northwest  Level FlightAware Approximate
Fri 04:58:18 PM 30.1786 -95.3244 359° North 240 276 2,900  Level Houston Center
Fri 04:58:43 PM 30.2114 -95.3400 338° Northwest 239 275 3,000  Climbing Houston Center
Fri 04:59:00 PM 30.2424 -95.4780 333° Northwest  Level FlightAware Approximate
Fri 04:59:20 PM 30.2361 -95.3656 318° Northwest 242 278 2,900  Level Houston Center
Fri 04:59:44 PM 30.2664 -95.3914 324° Northwest 250 288 3,400 1,333 Climbing Houston Center
Fri 05:00:00 PM 30.2937 -95.5082 333° Northwest  Level FlightAware Approximate
Fri 05:00:23 PM 30.2994 -95.4258 318° Northwest 246 283 4,300  Level Houston Center
Fri 05:00:45 PM 30.3217 -95.4450 323° Northwest 248 285 4,900 1,839 Climbing Houston Center
Fri 05:01:25 PM 30.3544 -95.4775 319° Northwest 251 289 6,200 1,967 Climbing Houston Center
Fri 05:01:46 PM 30.3769 -95.4989 321° Northwest 248 285 6,900 1,548 Climbing Houston Center
Fri 05:02:27 PM 30.4072 -95.5283 320° Northwest 249 287 7,800 583 Climbing Houston Center
Fri 05:03:29 PM 30.4647 -95.5722 327° Northwest 248 285 7,900 48 Climbing Houston Center
Fri 05:04:31 PM 30.5247 -95.6078 333° Northwest 244 281 7,900  Level Houston Center
Fri 05:05:33 PM 30.5861 -95.6447 333° Northwest 247 284 7,900  Level Houston Center
Fri 05:06:35 PM 30.6589 -95.6889 332° Northwest 247 284 7,900 48 Level Houston Center
Fri 05:07:37 PM 30.7192 -95.7239 333° Northwest 246 283 8,000  Climbing Houston Center
Fri 05:08:39 PM 30.7797 -95.7606 333° Northwest 244 281 7,900 -48 Descending Houston Center
Fri 05:09:41 PM 30.8397 -95.7964 333° Northwest 243 280 7,900 48 Level Houston Center
Fri 05:10:43 PM 30.8997 -95.8325 333° Northwest 241 277 8,000  Climbing Houston Center
Fri 05:11:46 PM 30.9811 -95.8303 North 251 289 7,900 -48 Descending Houston Center
Fri 05:12:48 PM 31.0478 -95.8508 345° North 249 287 7,900  Level Houston Center
Fri 05:13:50 PM 31.1139 -95.8722 345° North 245 282 7,900  Level Houston Center
Fri 05:14:52 PM 31.1781 -95.8922 345° North 241 277 7,900 50 Level Houston Center
Fri 05:15:51 PM 31.2419 -95.9142 344° North 238 274 8,000 50 Climbing Fort Worth Center
Fri 05:16:51 PM 31.3069 -95.9350 345° North 238 274 8,000  Level Fort Worth Center
Fri 05:17:52 PM 31.3719 -95.9558 345° North 244 281 8,000  Level Fort Worth Center
Fri 05:18:51 PM 31.4369 -95.9769 345° North 238 274 8,000  Level Fort Worth Center
Fri 05:19:51 PM 31.5081 -96.0000 345° North 238 274 8,000  Level Fort Worth Center
Fri 05:20:51 PM 31.5772 -96.0211 345° North 247 284 8,000  Level Fort Worth Center
Fri 05:21:51 PM 31.6464 -96.0444 344° North 248 285 8,000  Level Fort Worth Center
Fri 05:22:51 PM 31.7114 -96.0653 345° North 235 270 8,000  Level Fort Worth Center
Fri 05:23:52 PM 31.7742 -96.0817 347° North 248 285 8,000  Level Fort Worth Center
Fri 05:24:52 PM 31.8497 -96.1075 344° North 260 299 8,000  Level Fort Worth Center
Fri 05:25:51 PM 31.9167 -96.1308 344° North 255 293 8,000  Level Fort Worth Center
Fri 05:26:52 PM 31.9858 -96.1519 345° North 255 293 8,000  Level Fort Worth Center
Fri 05:27:52 PM 32.0528 -96.1731 345° North 248 285 8,000  Level Fort Worth Center
Fri 05:28:51 PM 32.1239 -96.1992 343° North 248 285 8,000 -50 Level Fort Worth Center
Fri 05:29:51 PM 32.1869 -96.2203 344° North 248 285 7,900 -300 Descending Fort Worth Center
Fri 05:30:51 PM 32.2561 -96.2589 335° Northwest 248 285 7,400 -450 Descending Fort Worth Center
Fri 05:31:51 PM 32.3169 -96.2972 332° Northwest 254 292 7,000 -198 Descending Fort Worth Center
Fri 05:32:52 PM 32.3800 -96.3358 333° Northwest 254 292 7,000  Level Fort Worth Center
Fri 05:33:51 PM 32.4389 -96.3819 327° Northwest 254 292 7,000 -151 Level Fort Worth Center
Fri 05:34:51 PM 32.4914 -96.4406 317° Northwest 254 292 6,700 -397 Descending Fort Worth Center
Fri 05:35:52 PM 32.5400 -96.4992 315° West 249 287 6,200 -450 Descending Fort Worth Center
Fri 05:36:51 PM 32.5925 -96.5553 318° Northwest 244 281 5,800 -454 Descending Fort Worth Center
Fri 05:37:51 PM 32.6367 -96.6042 317° Northwest 249 287 5,300 -545 Descending Fort Worth Center
Fri 05:38:52 PM 32.6914 -96.6656 317° Northwest 249 287 4,700 -982 Descending Fort Worth Center
Fri 05:39:41 PM 32.7333 -96.7167 314° West 237 273 3,500 -1,469 Descending Dallas / Fort Worth TRACON

Login

Don't have an account? Register now (free) for customized features, flight alerts, and more!